createdAt,value
2018-09-28T00:02:11.534Z,10.28
2018-09-28T00:04:40.352Z,10.28
2018-09-28T00:07:09.223Z,10.30
2018-09-28T00:09:38.062Z,10.26
2018-09-28T00:12:06.909Z,10.32
2018-09-28T00:14:35.716Z,10.37
2018-09-28T00:17:04.540Z,10.68
2018-09-28T00:19:33.393Z,10.49
2018-09-28T00:22:02.250Z,10.43
2018-09-28T00:24:31.082Z,10.31
2018-09-28T00:26:59.925Z,10.29
2018-09-28T00:29:28.738Z,10.22
2018-09-28T00:31:57.610Z,10.24
2018-09-28T00:34:26.529Z,10.20
2018-09-28T00:36:55.393Z,10.13
2018-09-28T00:39:24.224Z,10.11
2018-09-28T00:41:53.070Z,10.52
2018-09-28T00:44:21.936Z,10.28
2018-09-28T00:46:50.766Z,10.25
2018-09-28T00:49:19.615Z,10.21
2018-09-28T00:51:48.438Z,10.22
2018-09-28T00:54:17.265Z,10.23
2018-09-28T00:56:46.130Z,10.60
2018-09-28T00:59:14.970Z,10.39
2018-09-28T01:01:43.799Z,10.34
2018-09-28T01:04:12.624Z,10.33
2018-09-28T01:06:41.470Z,10.30
2018-09-28T01:09:12.390Z,10.30
2018-09-28T01:11:41.216Z,10.30
2018-09-28T01:14:10.031Z,10.29
2018-09-28T01:16:38.861Z,10.37
2018-09-28T01:19:07.692Z,10.38
2018-09-28T01:21:36.557Z,10.39
2018-09-28T01:24:05.434Z,10.43
2018-09-28T01:26:34.263Z,10.84
2018-09-28T01:29:03.112Z,10.61
2018-09-28T01:31:32.174Z,10.59
2018-09-28T01:34:01.070Z,10.53
2018-09-28T01:36:29.920Z,10.45
2018-09-28T01:38:58.741Z,10.42
2018-09-28T01:41:27.618Z,10.42
2018-09-28T01:43:56.480Z,10.47
2018-09-28T01:46:25.365Z,10.46
2018-09-28T01:48:54.170Z,10.41
2018-09-28T01:51:22.990Z,10.35
2018-09-28T01:53:51.845Z,10.32
2018-09-28T01:56:20.684Z,10.32
2018-09-28T01:58:49.537Z,10.39
2018-09-28T02:01:18.369Z,10.39
2018-09-28T02:03:47.213Z,10.46
2018-09-28T02:06:16.060Z,10.46
2018-09-28T02:08:44.876Z,10.44
2018-09-28T02:11:13.713Z,10.48
2018-09-28T02:13:42.550Z,10.54
2018-09-28T02:16:11.503Z,10.60
2018-09-28T02:18:40.319Z,11.01
2018-09-28T02:21:09.191Z,10.75
2018-09-28T02:23:38.012Z,10.75
2018-09-28T02:26:07.005Z,10.81
2018-09-28T02:28:35.828Z,10.80
2018-09-28T02:31:04.710Z,10.85
2018-09-28T02:33:33.542Z,10.93
2018-09-28T02:36:02.392Z,10.93
2018-09-28T02:38:31.264Z,10.99
2018-09-28T02:41:00.144Z,11.04
2018-09-28T02:43:29.009Z,11.12
2018-09-28T02:45:57.853Z,11.17
2018-09-28T02:48:26.721Z,11.23
2018-09-28T02:50:55.567Z,11.29
2018-09-28T02:53:24.381Z,11.72
2018-09-28T02:55:53.240Z,11.50
2018-09-28T02:58:22.088Z,11.48
2018-09-28T03:00:50.927Z,11.49
2018-09-28T03:03:19.769Z,11.52
2018-09-28T03:05:48.589Z,11.58
2018-09-28T03:08:17.434Z,11.59
2018-09-28T03:10:46.293Z,11.66
2018-09-28T03:13:15.150Z,11.67
2018-09-28T03:15:44.005Z,11.70
2018-09-28T03:18:12.829Z,11.74
2018-09-28T03:20:41.707Z,12.18
2018-09-28T03:23:10.554Z,11.96
2018-09-28T03:25:39.374Z,11.99
2018-09-28T03:28:08.208Z,12.04
2018-09-28T03:30:37.054Z,12.10
2018-09-28T03:33:05.913Z,12.14
2018-09-28T03:35:34.762Z,12.17
2018-09-28T03:38:03.700Z,12.20
2018-09-28T03:40:32.568Z,12.25
2018-09-28T03:43:01.354Z,12.32
2018-09-28T03:45:30.195Z,12.39
2018-09-28T03:47:59.060Z,12.44
2018-09-28T03:50:27.921Z,12.49
2018-09-28T03:52:56.787Z,12.55
2018-09-28T03:55:25.641Z,12.64
2018-09-28T03:57:54.460Z,12.70
2018-09-28T04:00:23.334Z,12.69
2018-09-28T04:02:52.228Z,12.71
2018-09-28T04:05:21.036Z,12.71
2018-09-28T04:07:49.875Z,12.76
2018-09-28T04:10:18.728Z,12.81
2018-09-28T04:12:47.586Z,12.83
2018-09-28T04:15:16.516Z,12.91
2018-09-28T04:17:45.250Z,12.98
2018-09-28T04:20:14.108Z,13.07
2018-09-28T04:22:42.952Z,13.20
2018-09-28T04:25:11.781Z,13.28
2018-09-28T04:27:40.624Z,13.37
2018-09-28T04:30:09.460Z,13.54
2018-09-28T04:32:38.333Z,13.67
2018-09-28T04:35:07.182Z,13.74
2018-09-28T04:37:36.022Z,13.82
2018-09-28T04:40:04.846Z,13.87
2018-09-28T04:42:33.664Z,13.93
2018-09-28T04:45:02.526Z,13.96
2018-09-28T04:47:31.360Z,14.30
2018-09-28T04:50:00.277Z,14.18
2018-09-28T04:52:29.209Z,14.21
2018-09-28T04:54:58.023Z,14.21
2018-09-28T04:57:26.836Z,14.20
2018-09-28T04:59:55.674Z,14.20
2018-09-28T05:02:24.497Z,14.23
2018-09-28T05:04:53.301Z,14.57
2018-09-28T05:07:22.161Z,14.41
2018-09-28T05:09:51.060Z,14.39
2018-09-28T05:12:19.927Z,14.70
2018-09-28T05:14:48.782Z,14.83
2018-09-28T05:17:17.625Z,14.85
2018-09-28T05:19:46.481Z,14.53
2018-09-28T05:22:15.312Z,14.39
2018-09-28T05:24:44.145Z,14.27
2018-09-28T05:27:12.997Z,14.19
2018-09-28T05:29:41.864Z,14.08
2018-09-28T05:32:10.781Z,14.06
2018-09-28T05:34:39.621Z,14.04
2018-09-28T05:37:08.499Z,14.01
2018-09-28T05:39:37.313Z,14.01
2018-09-28T05:42:06.127Z,14.00
2018-09-28T05:44:34.928Z,13.97
2018-09-28T05:47:03.788Z,13.97
2018-09-28T05:49:32.592Z,13.94
2018-09-28T05:52:01.443Z,13.94
2018-09-28T05:54:30.245Z,14.24
2018-09-28T05:56:59.078Z,14.08
2018-09-28T05:59:45.605Z,14.04
2018-09-28T06:02:32.106Z,14.03
2018-09-28T06:05:18.595Z,14.04
2018-09-28T06:07:47.371Z,13.96
2018-09-28T06:10:16.262Z,14.26
2018-09-28T06:12:45.089Z,14.12
2018-09-28T06:15:13.925Z,14.12
2018-09-28T06:17:42.738Z,14.12
2018-09-28T06:20:11.631Z,14.08
2018-09-28T06:22:40.466Z,14.05
2018-09-28T06:25:09.290Z,14.06
2018-09-28T06:27:38.161Z,14.14
2018-09-28T06:30:07.059Z,14.16
2018-09-28T06:32:35.862Z,14.19
2018-09-28T06:35:04.687Z,14.26
2018-09-28T06:37:33.531Z,14.31
2018-09-28T06:40:02.360Z,14.35
2018-09-28T06:42:31.287Z,14.64
2018-09-28T06:45:00.105Z,14.57
2018-09-28T06:47:28.943Z,14.60
2018-09-28T06:49:57.782Z,14.90
2018-09-28T06:52:26.850Z,14.75
2018-09-28T06:54:55.685Z,14.73
2018-09-28T06:57:24.512Z,14.71
2018-09-28T06:59:53.424Z,14.68
2018-09-28T07:02:22.199Z,14.69
2018-09-28T07:04:51.001Z,14.71
2018-09-28T07:07:19.920Z,14.73
2018-09-28T07:09:48.725Z,14.76
2018-09-28T07:12:17.633Z,15.08
2018-09-28T07:14:46.396Z,14.95
2018-09-28T07:17:15.243Z,15.01
2018-09-28T07:19:44.066Z,14.98
2018-09-28T07:22:12.946Z,14.91
2018-09-28T07:24:41.879Z,15.18
2018-09-28T07:27:10.618Z,14.97
2018-09-28T07:29:39.515Z,14.81
2018-09-28T07:32:08.296Z,14.75
2018-09-28T07:34:37.143Z,14.71
2018-09-28T07:37:06.125Z,14.66
2018-09-28T07:39:34.818Z,14.67
2018-09-28T07:42:03.753Z,14.67
2018-09-28T07:44:32.647Z,14.69
2018-09-28T07:47:01.478Z,14.67
2018-09-28T07:49:30.294Z,14.67
2018-09-28T07:51:59.136Z,14.70
2018-09-28T07:54:28.726Z,14.69
2018-09-28T07:56:57.561Z,14.66
2018-09-28T07:59:26.392Z,14.71
2018-09-28T08:01:55.235Z,14.66
2018-09-28T08:04:24.071Z,14.73
2018-09-28T08:06:52.898Z,14.74
2018-09-28T08:09:21.749Z,14.77
2018-09-28T08:11:50.610Z,14.83
2018-09-28T08:14:19.498Z,14.88
2018-09-28T08:16:48.398Z,14.96
2018-09-28T08:19:17.286Z,15.10
2018-09-28T08:21:46.152Z,15.29
2018-09-28T08:24:14.992Z,15.41
2018-09-28T08:26:43.851Z,15.63
2018-09-28T08:29:12.700Z,15.88
2018-09-28T08:31:41.532Z,16.19
2018-09-28T08:34:10.352Z,16.61
2018-09-28T08:36:39.260Z,16.62
2018-09-28T08:39:08.705Z,16.75
2018-09-28T08:41:37.554Z,16.81
2018-09-28T08:44:06.378Z,16.92
2018-09-28T08:46:35.218Z,17.25
2018-09-28T08:49:04.611Z,17.21
2018-09-28T08:51:33.457Z,17.33
2018-09-28T08:54:02.331Z,17.50
2018-09-28T08:56:31.251Z,17.48
2018-09-28T08:59:00.099Z,17.61
2018-09-28T09:01:28.945Z,17.65
2018-09-28T09:03:57.772Z,17.87
2018-09-28T09:06:26.651Z,18.16
2018-09-28T09:08:55.486Z,18.41
2018-09-28T09:11:24.346Z,18.41
2018-09-28T09:13:53.192Z,18.15
2018-09-28T09:16:22.101Z,18.28
2018-09-28T09:18:50.939Z,18.14
2018-09-28T09:21:19.785Z,18.10
2018-09-28T09:23:48.654Z,18.47
2018-09-28T09:26:17.492Z,18.59
2018-09-28T09:28:46.311Z,19.02
2018-09-28T09:31:15.197Z,19.09
2018-09-28T09:33:44.089Z,19.26
2018-09-28T09:36:12.907Z,19.84
2018-09-28T09:38:41.719Z,20.40
2018-09-28T09:41:10.657Z,20.57
2018-09-28T09:43:39.479Z,20.61
2018-09-28T09:46:08.468Z,21.67
2018-09-28T09:48:37.362Z,22.71
2018-09-28T09:51:06.127Z,24.46
2018-09-28T09:53:34.953Z,25.61
2018-09-28T09:56:03.841Z,25.84
2018-09-28T09:58:32.629Z,26.16
2018-09-28T10:01:08.169Z,25.28
2018-09-28T10:03:50.471Z,25.18
2018-09-28T10:06:22.621Z,24.40
2018-09-28T10:08:51.439Z,24.34
2018-09-28T10:11:20.304Z,25.28
2018-09-28T10:13:49.136Z,25.37
2018-09-28T10:16:17.958Z,25.19
2018-09-28T10:18:46.843Z,24.66
2018-09-28T10:21:15.774Z,24.26
2018-09-28T10:23:44.543Z,23.35
2018-09-28T10:26:13.371Z,23.11
2018-09-28T10:28:42.268Z,23.37
2018-09-28T10:31:11.049Z,22.92
2018-09-28T10:33:40.117Z,22.22
2018-09-28T10:36:08.896Z,21.82
2018-09-28T10:38:37.763Z,21.21
2018-09-28T10:41:06.762Z,20.61
2018-09-28T10:43:35.489Z,19.80
2018-09-28T10:46:04.398Z,19.73
2018-09-28T10:48:33.242Z,19.16
2018-09-28T10:51:02.087Z,19.05
2018-09-28T10:53:30.921Z,18.91
2018-09-28T10:55:59.742Z,20.09
2018-09-28T10:58:28.640Z,20.08
2018-09-28T11:00:57.407Z,21.06
2018-09-28T11:03:26.240Z,22.36
2018-09-28T11:05:55.116Z,23.12
2018-09-28T11:08:23.935Z,24.06
2018-09-28T11:10:52.715Z,24.46
2018-09-28T11:13:21.530Z,24.91
2018-09-28T11:15:50.397Z,25.12
2018-09-28T11:18:19.169Z,25.02
2018-09-28T11:20:48.022Z,25.13
2018-09-28T11:23:16.850Z,25.41
2018-09-28T11:25:45.670Z,25.91
2018-09-28T11:28:14.489Z,25.85
2018-09-28T11:30:43.356Z,25.79
2018-09-28T11:33:12.178Z,24.72
2018-09-28T11:35:41.009Z,23.74
2018-09-28T11:38:09.841Z,22.69
2018-09-28T11:40:38.712Z,22.01
2018-09-28T11:43:07.628Z,21.89
2018-09-28T11:45:36.398Z,21.79
2018-09-28T11:48:05.206Z,21.51
2018-09-28T11:50:34.053Z,21.42
2018-09-28T11:53:02.896Z,21.48
2018-09-28T11:55:31.739Z,21.69
2018-09-28T11:58:00.573Z,21.53
2018-09-28T12:00:29.422Z,21.31
2018-09-28T12:02:58.241Z,20.94
2018-09-28T12:05:27.088Z,20.92
2018-09-28T12:07:55.917Z,21.04
2018-09-28T12:10:24.730Z,21.09
2018-09-28T12:12:53.575Z,21.06
2018-09-28T12:15:22.500Z,20.81
2018-09-28T12:17:51.271Z,20.83
2018-09-28T12:20:20.117Z,20.83
2018-09-28T12:22:48.953Z,20.93
2018-09-28T12:25:17.767Z,20.80
2018-09-28T12:27:46.693Z,20.76
2018-09-28T12:30:15.459Z,20.81
2018-09-28T12:32:44.247Z,20.92
2018-09-28T12:35:13.065Z,20.90
2018-09-28T12:37:41.912Z,21.05
2018-09-28T12:40:10.728Z,21.10
2018-09-28T12:42:39.615Z,21.06
2018-09-28T12:45:08.461Z,20.87
2018-09-28T12:47:37.249Z,20.73
2018-09-28T12:50:06.166Z,20.38
2018-09-28T12:52:34.984Z,20.41
2018-09-28T12:55:03.790Z,20.48
2018-09-28T12:57:32.675Z,20.43
2018-09-28T13:00:01.512Z,20.46
2018-09-28T13:02:30.399Z,20.49
2018-09-28T13:04:59.304Z,20.19
2018-09-28T13:07:28.125Z,20.01
2018-09-28T13:09:56.957Z,19.86
2018-09-28T13:12:25.891Z,19.68
2018-09-28T13:14:54.761Z,19.55
2018-09-28T13:17:23.438Z,19.42
2018-09-28T13:19:52.258Z,19.44
2018-09-28T13:22:21.140Z,19.43
2018-09-28T13:24:50.020Z,19.53
2018-09-28T13:27:18.756Z,19.77
2018-09-28T13:29:47.590Z,19.72
2018-09-28T13:32:16.545Z,19.85
2018-09-28T13:34:45.236Z,19.99
2018-09-28T13:37:14.081Z,20.11
2018-09-28T13:39:42.895Z,20.50
2018-09-28T13:42:11.802Z,20.63
2018-09-28T13:44:40.704Z,20.50
2018-09-28T13:47:09.738Z,20.24
2018-09-28T13:49:38.548Z,20.05
2018-09-28T13:52:07.426Z,19.66
2018-09-28T13:54:36.263Z,19.16
2018-09-28T13:57:05.048Z,18.89
2018-09-28T13:59:33.913Z,18.64
2018-09-28T14:02:02.768Z,18.77
2018-09-28T14:04:31.649Z,18.54
2018-09-28T14:07:00.663Z,18.47
2018-09-28T14:09:29.280Z,18.54
2018-09-28T14:11:58.108Z,18.38
2018-09-28T14:14:27.020Z,18.34
2018-09-28T14:16:55.811Z,18.35
2018-09-28T14:19:24.670Z,18.38
2018-09-28T14:21:53.520Z,18.40
2018-09-28T14:24:22.489Z,18.35
2018-09-28T14:26:51.326Z,18.35
2018-09-28T14:29:20.077Z,18.31
2018-09-28T14:31:48.946Z,18.17
2018-09-28T14:34:17.814Z,18.03
2018-09-28T14:36:46.705Z,17.89
2018-09-28T14:39:15.491Z,17.98
2018-09-28T14:41:44.341Z,18.13
2018-09-28T14:44:13.265Z,18.22
2018-09-28T14:46:42.108Z,18.27
2018-09-28T14:49:11.033Z,18.39
2018-09-28T14:51:39.714Z,18.44
2018-09-28T14:54:08.608Z,18.45
2018-09-28T14:56:37.457Z,18.35
2018-09-28T14:59:06.251Z,18.31
2018-09-28T15:01:35.090Z,18.21
2018-09-28T15:04:03.955Z,18.23
2018-09-28T15:06:32.854Z,18.27
2018-09-28T15:09:01.618Z,18.11
2018-09-28T15:11:32.630Z,17.93
2018-09-28T15:14:01.503Z,17.56
2018-09-28T15:16:30.358Z,17.41
2018-09-28T15:18:59.160Z,17.29
2018-09-28T15:21:27.978Z,17.11
2018-09-28T15:23:56.862Z,16.95
2018-09-28T15:26:25.679Z,16.85
2018-09-28T15:28:54.525Z,16.89
2018-09-28T15:31:23.341Z,16.75
2018-09-28T15:33:52.203Z,16.85
2018-09-28T15:36:21.084Z,16.95
2018-09-28T15:38:49.923Z,17.13
2018-09-28T15:41:18.903Z,17.15
2018-09-28T15:43:47.757Z,17.23
2018-09-28T15:46:16.619Z,17.25
2018-09-28T15:48:45.442Z,17.18
2018-09-28T15:51:14.256Z,17.22
2018-09-28T15:53:43.087Z,17.32
2018-09-28T15:56:11.919Z,17.18
2018-09-28T15:58:40.756Z,17.12
2018-09-28T16:01:09.597Z,17.06
2018-09-28T16:03:38.425Z,16.91
2018-09-28T16:06:07.265Z,16.83
2018-09-28T16:08:36.124Z,16.83
2018-09-28T16:11:04.970Z,16.89
2018-09-28T16:13:33.802Z,16.74
2018-09-28T16:16:02.707Z,16.73
2018-09-28T16:18:31.631Z,16.72
2018-09-28T16:21:00.490Z,16.69
2018-09-28T16:23:29.330Z,16.59
2018-09-28T16:25:58.388Z,16.51
2018-09-28T16:28:27.250Z,16.49
2018-09-28T16:30:56.089Z,16.41
2018-09-28T16:33:25.093Z,16.27
2018-09-28T16:35:53.951Z,16.20
2018-09-28T16:38:22.797Z,16.14
2018-09-28T16:40:51.632Z,16.06
2018-09-28T16:43:20.453Z,16.04
2018-09-28T16:45:49.332Z,16.10
2018-09-28T16:48:18.138Z,15.86
2018-09-28T16:50:47.008Z,15.72
2018-09-28T16:53:15.823Z,15.64
2018-09-28T16:55:44.681Z,15.59
2018-09-28T16:58:13.492Z,15.50
2018-09-28T17:00:42.379Z,15.40
2018-09-28T17:03:11.224Z,15.32
2018-09-28T17:05:40.049Z,15.24
2018-09-28T17:08:08.924Z,15.18
2018-09-28T17:10:38.053Z,15.11
2018-09-28T17:13:06.907Z,15.03
2018-09-28T17:15:35.745Z,15.00
2018-09-28T17:18:04.679Z,15.09
2018-09-28T17:20:33.492Z,14.85
2018-09-28T17:23:02.352Z,14.80
2018-09-28T17:25:31.172Z,14.66
2018-09-28T17:28:00.025Z,14.64
2018-09-28T17:30:28.852Z,14.60
2018-09-28T17:32:57.712Z,14.53
2018-09-28T17:35:26.549Z,14.45
2018-09-28T17:37:55.432Z,14.42
2018-09-28T17:40:24.312Z,14.42
2018-09-28T17:42:53.148Z,14.37
2018-09-28T17:45:21.989Z,14.30
2018-09-28T17:47:50.866Z,14.24
2018-09-28T17:50:19.748Z,14.16
2018-09-28T17:52:48.571Z,14.15
2018-09-28T17:55:17.409Z,14.03
2018-09-28T17:57:46.250Z,14.18
2018-09-28T18:00:15.518Z,13.97
2018-09-28T18:02:44.359Z,13.85
2018-09-28T18:05:13.167Z,13.85
2018-09-28T18:07:42.006Z,13.90
2018-09-28T18:10:10.901Z,13.85
2018-09-28T18:12:39.739Z,14.00
2018-09-28T18:15:08.619Z,13.77
2018-09-28T18:17:37.479Z,13.70
2018-09-28T18:20:06.321Z,13.56
2018-09-28T18:22:35.145Z,13.45
2018-09-28T18:25:03.972Z,13.48
2018-09-28T18:27:32.890Z,13.48
2018-09-28T18:30:01.825Z,13.43
2018-09-28T18:32:30.644Z,13.29
2018-09-28T18:34:59.505Z,13.21
2018-09-28T18:37:28.395Z,13.16
2018-09-28T18:39:57.246Z,13.09
2018-09-28T18:42:26.060Z,13.06
2018-09-28T18:44:58.280Z,12.99
2018-09-28T18:47:27.121Z,12.94
2018-09-28T18:49:56.347Z,12.91
2018-09-28T18:52:25.533Z,13.12
2018-09-28T18:54:54.654Z,12.88
2018-09-28T18:57:24.121Z,12.85
2018-09-28T18:59:52.966Z,12.84
2018-09-28T19:02:21.826Z,12.82
2018-09-28T19:04:50.648Z,12.69
2018-09-28T19:07:19.476Z,12.61
2018-09-28T19:09:48.340Z,12.49
2018-09-28T19:12:17.187Z,12.42
2018-09-28T19:14:45.983Z,12.35
2018-09-28T19:17:14.823Z,12.32
2018-09-28T19:19:43.672Z,12.23
2018-09-28T19:22:12.527Z,12.17
2018-09-28T19:24:41.399Z,12.06
2018-09-28T19:27:10.218Z,11.97
2018-09-28T19:29:39.152Z,11.86
2018-09-28T19:32:07.969Z,11.86
2018-09-28T19:34:36.849Z,11.85
2018-09-28T19:37:05.713Z,11.79
2018-09-28T19:39:34.577Z,11.71
2018-09-28T19:42:03.434Z,11.66
2018-09-28T19:44:32.253Z,11.63
2018-09-28T19:47:01.097Z,11.52
2018-09-28T19:49:29.945Z,11.42
2018-09-28T19:51:58.844Z,11.40
2018-09-28T19:54:27.706Z,11.35
2018-09-28T19:56:56.537Z,11.31
2018-09-28T19:59:25.376Z,11.50
2018-09-28T20:01:54.273Z,11.22
2018-09-28T20:04:23.207Z,11.51
2018-09-28T20:06:52.027Z,11.18
2018-09-28T20:09:20.874Z,11.13
2018-09-28T20:11:49.697Z,11.03
2018-09-28T20:14:18.518Z,10.98
2018-09-28T20:16:47.374Z,10.91
2018-09-28T20:19:16.196Z,10.86
2018-09-28T20:21:45.085Z,10.80
2018-09-28T20:24:13.941Z,11.14
2018-09-28T20:26:42.791Z,10.75
2018-09-28T20:29:11.635Z,10.69
2018-09-28T20:31:40.495Z,10.65
2018-09-28T20:34:09.332Z,10.62
2018-09-28T20:36:38.164Z,10.57
2018-09-28T20:39:09.496Z,10.91
2018-09-28T20:41:38.338Z,10.59
2018-09-28T20:44:07.160Z,10.55
2018-09-28T20:46:36.810Z,10.53
2018-09-28T20:49:05.884Z,10.88
2018-09-28T20:51:34.663Z,10.57
2018-09-28T20:54:03.512Z,10.85
2018-09-28T20:56:32.361Z,10.48
2018-09-28T20:59:01.207Z,10.40
2018-09-28T21:01:30.029Z,10.34
2018-09-28T21:03:58.887Z,10.68
2018-09-28T21:06:27.725Z,10.34
2018-09-28T21:08:56.581Z,10.66
2018-09-28T21:11:25.484Z,10.27
2018-09-28T21:13:54.338Z,10.62
2018-09-28T21:16:23.215Z,10.31
2018-09-28T21:18:52.043Z,10.26
2018-09-28T21:21:20.890Z,10.14
2018-09-28T21:23:49.741Z,10.05
2018-09-28T21:26:18.574Z,10.01
2018-09-28T21:28:47.380Z,9.97
2018-09-28T21:31:16.228Z,9.93
2018-09-28T21:33:45.066Z,9.85
2018-09-28T21:36:13.904Z,9.73
2018-09-28T21:38:42.755Z,9.66
2018-09-28T21:41:11.585Z,9.63
2018-09-28T21:43:40.449Z,9.57
2018-09-28T21:46:09.327Z,9.55
2018-09-28T21:48:38.157Z,9.48
2018-09-28T21:51:07.056Z,9.44
2018-09-28T21:53:35.903Z,9.37
2018-09-28T21:56:04.729Z,9.28
2018-09-28T21:58:33.556Z,9.63
2018-09-28T22:01:02.410Z,9.34
2018-09-28T22:03:31.228Z,9.22
2018-09-28T22:06:00.071Z,9.18
2018-09-28T22:08:28.896Z,9.13
2018-09-28T22:10:57.749Z,9.06
2018-09-28T22:13:26.592Z,9.01
2018-09-28T22:15:55.415Z,8.89
2018-09-28T22:18:24.316Z,8.86
2018-09-28T22:20:53.180Z,8.76
2018-09-28T22:23:22.082Z,8.71
2018-09-28T22:25:50.891Z,9.01
2018-09-28T22:28:19.707Z,9.12
2018-09-28T22:30:48.542Z,8.84
2018-09-28T22:33:17.357Z,8.77
2018-09-28T22:35:46.234Z,8.99
2018-09-28T22:38:15.061Z,8.66
2018-09-28T22:40:43.988Z,8.55
2018-09-28T22:43:12.816Z,8.49
2018-09-28T22:45:41.671Z,8.43
2018-09-28T22:48:10.492Z,8.38
2018-09-28T22:50:39.339Z,8.33
2018-09-28T22:53:08.148Z,8.28
2018-09-28T22:55:36.988Z,8.28
2018-09-28T22:58:05.837Z,8.55
2018-09-28T23:00:34.674Z,8.25
2018-09-28T23:03:03.510Z,8.54
2018-09-28T23:05:32.422Z,8.22
2018-09-28T23:08:01.197Z,8.17
2018-09-28T23:10:30.058Z,8.14
2018-09-28T23:12:58.845Z,8.08
2018-09-28T23:15:27.660Z,7.96
2018-09-28T23:17:56.469Z,7.93
2018-09-28T23:20:25.291Z,8.25
2018-09-28T23:22:54.225Z,7.92
2018-09-28T23:25:23.063Z,7.92
2018-09-28T23:27:51.905Z,7.73
2018-09-28T23:30:20.726Z,7.68
2018-09-28T23:32:49.584Z,7.58
2018-09-28T23:35:18.415Z,7.59
2018-09-28T23:37:47.270Z,7.58
2018-09-28T23:40:16.076Z,7.53
2018-09-28T23:42:44.902Z,7.48
2018-09-28T23:45:13.723Z,7.55
2018-09-28T23:47:42.622Z,7.54
2018-09-28T23:50:11.376Z,7.48
2018-09-28T23:52:40.216Z,7.36
2018-09-28T23:55:09.085Z,7.34
2018-09-28T23:57:37.931Z,7.63
